createdAt,value
2022-08-03T00:00:27.020Z,20.68
2022-08-03T00:02:53.969Z,20.63
2022-08-03T00:05:20.697Z,20.58
2022-08-03T00:07:49.377Z,20.58
2022-08-03T00:10:17.020Z,20.41
2022-08-03T00:12:43.501Z,20.46
2022-08-03T00:15:11.332Z,20.48
2022-08-03T00:17:52.311Z,20.54
2022-08-03T00:20:23.449Z,20.50
2022-08-03T00:22:50.350Z,20.47
2022-08-03T00:25:17.768Z,20.45
2022-08-03T00:27:44.274Z,20.42
2022-08-03T00:30:11.250Z,20.45
2022-08-03T00:32:38.886Z,20.48
2022-08-03T00:35:18.250Z,20.42
2022-08-03T00:37:58.712Z,20.38
2022-08-03T00:40:25.267Z,20.38
2022-08-03T00:42:54.779Z,20.36
2022-08-03T00:45:23.693Z,20.29
2022-08-03T00:47:50.491Z,20.25
2022-08-03T00:50:18.687Z,20.34
2022-08-03T00:52:45.643Z,20.41
2022-08-03T00:55:12.865Z,20.37
2022-08-03T00:57:39.640Z,20.27
2022-08-03T01:00:08.040Z,20.20
2022-08-03T01:02:34.585Z,20.10
2022-08-03T01:05:01.074Z,20.15
2022-08-03T01:07:47.345Z,20.17
2022-08-03T01:10:33.397Z,20.16
2022-08-03T01:13:07.192Z,20.16
2022-08-03T01:16:06.044Z,19.97
2022-08-03T01:18:57.164Z,19.90
2022-08-03T01:21:49.790Z,19.89
2022-08-03T01:24:47.376Z,19.81
2022-08-03T01:27:18.876Z,19.82
2022-08-03T01:30:00.297Z,19.68
2022-08-03T01:32:59.326Z,19.75
2022-08-03T01:35:28.095Z,19.69
2022-08-03T01:37:58.955Z,19.62
2022-08-03T01:40:28.474Z,19.64
2022-08-03T01:42:59.484Z,19.64
2022-08-03T01:45:27.618Z,19.54
2022-08-03T01:47:55.485Z,19.51
2022-08-03T01:50:24.945Z,19.52
2022-08-03T01:52:53.107Z,19.56
2022-08-03T01:55:21.166Z,19.63
2022-08-03T01:58:05.800Z,19.66
2022-08-03T02:00:36.594Z,19.53
2022-08-03T02:03:05.939Z,19.54
2022-08-03T02:05:33.577Z,19.49
2022-08-03T02:08:03.480Z,19.39
2022-08-03T02:10:35.179Z,19.30
2022-08-03T02:13:05.074Z,19.24
2022-08-03T02:15:33.455Z,19.23
2022-08-03T02:18:04.022Z,19.12
2022-08-03T02:20:33.117Z,19.08
2022-08-03T02:23:00.015Z,19.18
2022-08-03T02:25:26.898Z,19.06
2022-08-03T02:27:58.063Z,19.14
2022-08-03T02:30:39.238Z,19.19
2022-08-03T02:33:16.622Z,19.18
2022-08-03T02:35:45.075Z,19.14
2022-08-03T02:38:14.100Z,19.16
2022-08-03T02:40:43.322Z,19.17
2022-08-03T02:43:16.144Z,19.14
2022-08-03T02:45:45.931Z,19.14
2022-08-03T02:48:17.442Z,19.12
2022-08-03T02:50:45.627Z,19.08
2022-08-03T02:53:12.981Z,18.92
2022-08-03T02:55:43.179Z,19.00
2022-08-03T02:58:13.920Z,19.06
2022-08-03T03:00:43.992Z,19.09
2022-08-03T03:03:11.551Z,19.07
2022-08-03T03:05:54.803Z,19.09
2022-08-03T03:08:25.973Z,19.01
2022-08-03T03:11:00.269Z,18.85
2022-08-03T03:13:28.945Z,18.89
2022-08-03T03:15:58.511Z,18.81
2022-08-03T03:18:27.554Z,18.79
2022-08-03T03:20:55.085Z,18.72
2022-08-03T03:23:23.299Z,18.72
2022-08-03T03:25:51.254Z,18.69
2022-08-03T03:28:17.953Z,18.71
2022-08-03T03:30:44.964Z,18.80
2022-08-03T03:33:19.544Z,18.84
2022-08-03T03:35:46.886Z,18.85
2022-08-03T03:38:13.568Z,18.82
2022-08-03T03:40:40.639Z,18.79
2022-08-03T03:43:08.697Z,18.75
2022-08-03T03:45:35.929Z,18.75
2022-08-03T03:48:05.329Z,18.78
2022-08-03T03:50:32.996Z,18.78
2022-08-03T03:52:59.572Z,18.70
2022-08-03T03:55:26.079Z,18.75
2022-08-03T03:57:52.543Z,18.78
2022-08-03T04:00:19.508Z,18.81
2022-08-03T04:02:46.682Z,18.85
2022-08-03T04:05:32.715Z,18.88
2022-08-03T04:08:21.372Z,18.94
2022-08-03T04:11:00.765Z,18.86
2022-08-03T04:13:51.907Z,18.85
2022-08-03T04:16:22.177Z,18.82
2022-08-03T04:18:57.194Z,18.78
2022-08-03T04:21:25.207Z,18.81
2022-08-03T04:23:55.804Z,18.78
2022-08-03T04:26:26.491Z,18.70
2022-08-03T04:28:55.040Z,18.75
2022-08-03T04:31:24.208Z,18.67
2022-08-03T04:33:52.683Z,18.71
2022-08-03T04:36:25.920Z,18.76
2022-08-03T04:39:06.747Z,18.80
2022-08-03T04:42:02.211Z,18.85
2022-08-03T04:44:28.422Z,18.68
2022-08-03T04:46:56.664Z,18.62
2022-08-03T04:49:24.022Z,18.71
2022-08-03T04:51:51.044Z,18.71
2022-08-03T04:54:17.555Z,18.75
2022-08-03T04:56:44.370Z,18.77
2022-08-03T04:59:11.356Z,18.73
2022-08-03T05:01:39.169Z,18.82
2022-08-03T05:04:05.704Z,18.85
2022-08-03T05:06:32.199Z,18.91
2022-08-03T05:08:58.655Z,18.97
2022-08-03T05:11:25.684Z,18.93
2022-08-03T05:13:52.212Z,18.89
2022-08-03T05:16:18.898Z,18.91
2022-08-03T05:18:45.991Z,18.88
2022-08-03T05:21:14.448Z,18.90
2022-08-03T05:23:41.402Z,18.92
2022-08-03T05:26:07.868Z,18.95
2022-08-03T05:28:34.328Z,19.04
2022-08-03T05:31:00.790Z,19.13
2022-08-03T05:33:27.327Z,19.23
2022-08-03T05:35:57.476Z,19.32
2022-08-03T05:38:34.018Z,19.41
2022-08-03T05:41:20.532Z,19.45
2022-08-03T05:43:50.097Z,19.51
2022-08-03T05:46:16.635Z,19.54
2022-08-03T05:48:43.850Z,19.58
2022-08-03T05:51:13.448Z,19.60
2022-08-03T05:53:41.201Z,19.63
2022-08-03T05:56:13.927Z,19.65
2022-08-03T05:58:46.464Z,19.67
2022-08-03T06:01:13.384Z,19.67
2022-08-03T06:03:40.240Z,19.70
2022-08-03T06:06:06.778Z,19.73
2022-08-03T06:08:33.986Z,19.75
2022-08-03T06:11:03.627Z,19.77
2022-08-03T06:13:30.153Z,19.81
2022-08-03T06:15:56.620Z,19.84
2022-08-03T06:18:24.558Z,19.90
2022-08-03T06:20:52.313Z,19.97
2022-08-03T06:23:19.018Z,20.01
2022-08-03T06:25:45.822Z,20.03
2022-08-03T06:28:42.555Z,20.07
2022-08-03T06:31:01.551Z,20.10
2022-08-03T06:34:30.829Z,20.11
2022-08-03T06:36:15.320Z,20.11
2022-08-03T06:38:41.877Z,20.11
2022-08-03T06:41:08.355Z,20.10
2022-08-03T06:43:37.868Z,20.11
2022-08-03T06:46:05.545Z,20.15
2022-08-03T06:48:32.497Z,20.21
2022-08-03T06:50:59.227Z,20.26
2022-08-03T06:53:26.026Z,20.27
2022-08-03T06:55:54.977Z,20.26
2022-08-03T06:58:22.371Z,20.27
2022-08-03T07:00:48.866Z,20.31
2022-08-03T07:03:15.344Z,20.33
2022-08-03T07:05:43.518Z,20.34
2022-08-03T07:08:10.256Z,20.36
2022-08-03T07:10:37.137Z,20.36
2022-08-03T07:13:04.043Z,20.37
2022-08-03T07:15:55.049Z,20.39
2022-08-03T07:18:17.632Z,20.42
2022-08-03T07:20:55.815Z,20.44
2022-08-03T07:23:22.447Z,20.48
2022-08-03T07:25:49.021Z,20.50
2022-08-03T07:28:15.580Z,20.53
2022-08-03T07:30:42.094Z,20.56
2022-08-03T07:33:08.601Z,20.59
2022-08-03T07:35:35.115Z,20.66
2022-08-03T07:38:01.680Z,20.69
2022-08-03T07:40:31.514Z,20.75
2022-08-03T07:42:58.904Z,20.81
2022-08-03T07:45:26.546Z,20.88
2022-08-03T07:47:54.415Z,20.94
2022-08-03T07:50:21.958Z,20.97
2022-08-03T07:52:53.017Z,20.99
2022-08-03T07:55:21.958Z,21.02
2022-08-03T07:57:59.908Z,21.02
2022-08-03T08:00:26.548Z,21.00
2022-08-03T08:02:53.064Z,21.01
2022-08-03T08:05:19.775Z,21.02
2022-08-03T08:07:51.005Z,21.04
2022-08-03T08:10:19.537Z,21.05
2022-08-03T08:12:46.647Z,21.21
2022-08-03T08:15:13.481Z,21.39
2022-08-03T08:17:45.628Z,21.61
2022-08-03T08:20:15.832Z,21.77
2022-08-03T08:22:51.783Z,21.71
2022-08-03T08:25:19.466Z,21.64
2022-08-03T08:28:30.890Z,21.65
2022-08-03T08:30:35.451Z,21.62
2022-08-03T08:33:02.215Z,21.58
2022-08-03T08:35:28.842Z,21.55
2022-08-03T08:37:55.391Z,21.54
2022-08-03T08:40:23.193Z,21.64
2022-08-03T08:42:58.876Z,21.75
2022-08-03T08:45:26.162Z,22.02
2022-08-03T08:47:59.738Z,21.98
2022-08-03T08:50:29.680Z,21.95
2022-08-03T08:53:00.724Z,22.03
2022-08-03T08:55:27.568Z,22.05
2022-08-03T08:58:01.869Z,22.11
2022-08-03T09:00:28.662Z,22.42
2022-08-03T09:02:55.140Z,22.36
2022-08-03T09:05:31.647Z,22.31
2022-08-03T09:08:08.718Z,22.40
2022-08-03T09:10:35.217Z,22.51
2022-08-03T09:13:01.812Z,22.52
2022-08-03T09:15:33.989Z,22.53
2022-08-03T09:18:02.546Z,22.44
2022-08-03T09:20:32.004Z,22.44
2022-08-03T09:23:51.914Z,22.62
2022-08-03T09:26:01.744Z,22.65
2022-08-03T09:28:59.704Z,22.67
2022-08-03T09:31:38.737Z,22.77
2022-08-03T09:34:07.862Z,22.70
2022-08-03T09:36:48.938Z,22.66
2022-08-03T09:39:28.643Z,22.81
2022-08-03T09:42:10.179Z,22.84
2022-08-03T09:44:42.281Z,22.87
2022-08-03T09:47:15.460Z,23.00
2022-08-03T09:49:56.456Z,23.73
2022-08-03T09:52:38.766Z,23.73
2022-08-03T09:56:35.167Z,24.01
2022-08-03T09:58:07.104Z,24.35
2022-08-03T10:00:54.022Z,25.29
2022-08-03T10:03:20.798Z,25.68
2022-08-03T10:05:47.443Z,25.60
2022-08-03T10:08:16.054Z,25.40
2022-08-03T10:10:44.455Z,25.07
2022-08-03T10:13:15.546Z,24.87
2022-08-03T10:16:22.389Z,24.76
2022-08-03T10:18:29.643Z,24.72
2022-08-03T10:21:04.078Z,24.72
2022-08-03T10:23:34.900Z,24.87
2022-08-03T10:26:04.737Z,24.81
2022-08-03T10:28:53.030Z,25.06
2022-08-03T10:31:21.947Z,25.37
2022-08-03T10:33:53.196Z,25.69
2022-08-03T10:36:23.954Z,25.65
2022-08-03T10:38:53.144Z,25.58
2022-08-03T10:41:26.457Z,25.26
2022-08-03T10:44:05.441Z,25.58
2022-08-03T10:46:33.500Z,25.99
2022-08-03T10:49:00.767Z,25.82
2022-08-03T10:51:32.000Z,26.06
2022-08-03T10:54:01.550Z,26.39
2022-08-03T10:56:54.680Z,26.43
2022-08-03T10:59:46.190Z,26.68
2022-08-03T11:02:14.512Z,26.44
2022-08-03T11:04:41.743Z,26.42
2022-08-03T11:07:17.706Z,26.62
2022-08-03T11:09:48.391Z,26.75
2022-08-03T11:12:33.227Z,26.77
2022-08-03T11:15:05.944Z,26.63
2022-08-03T11:17:33.950Z,26.41
2022-08-03T11:20:13.748Z,26.27
2022-08-03T11:22:51.482Z,26.07
2022-08-03T11:25:53.447Z,25.91
2022-08-03T11:28:29.370Z,25.79
2022-08-03T11:30:57.254Z,26.30
2022-08-03T11:33:31.191Z,26.40
2022-08-03T11:35:59.612Z,26.57
2022-08-03T11:38:26.366Z,26.36
2022-08-03T11:40:54.000Z,26.23
2022-08-03T11:43:26.713Z,26.26
2022-08-03T11:46:00.003Z,26.62
2022-08-03T11:48:40.197Z,26.86
2022-08-03T11:51:08.410Z,27.02
2022-08-03T11:53:41.770Z,26.81
2022-08-03T11:56:13.009Z,26.62
2022-08-03T11:59:01.491Z,26.34
2022-08-03T12:01:39.946Z,26.55
2022-08-03T12:04:07.084Z,26.82
2022-08-03T12:06:53.511Z,27.10
2022-08-03T12:09:21.279Z,27.39
2022-08-03T12:11:59.581Z,27.36
2022-08-03T12:14:48.600Z,27.55
2022-08-03T12:17:14.949Z,27.73
2022-08-03T12:19:42.893Z,27.72
2022-08-03T12:22:09.499Z,27.91
2022-08-03T12:24:47.488Z,28.31
2022-08-03T12:27:25.064Z,28.61
2022-08-03T12:29:58.432Z,28.85
2022-08-03T12:32:26.179Z,29.24
2022-08-03T12:34:52.697Z,29.45
2022-08-03T12:37:29.896Z,29.82
2022-08-03T12:40:09.547Z,30.06
2022-08-03T12:42:38.858Z,30.11
2022-08-03T12:45:21.928Z,30.17
2022-08-03T12:47:59.875Z,30.23
2022-08-03T12:50:29.050Z,30.32
2022-08-03T12:52:57.628Z,30.56
2022-08-03T12:55:57.378Z,30.61
2022-08-03T12:58:33.816Z,30.84
2022-08-03T13:01:01.008Z,30.93
2022-08-03T13:03:43.453Z,30.95
2022-08-03T13:06:17.333Z,31.00
2022-08-03T13:08:44.431Z,31.19
2022-08-03T13:11:55.364Z,31.18
2022-08-03T13:14:16.945Z,31.29
2022-08-03T13:16:47.003Z,31.30
2022-08-03T13:19:15.399Z,31.15
2022-08-03T13:22:02.139Z,31.37
2022-08-03T13:24:30.423Z,31.39
2022-08-03T13:26:57.913Z,31.43
2022-08-03T13:29:24.436Z,31.27
2022-08-03T13:31:51.627Z,31.33
2022-08-03T13:34:22.969Z,31.27
2022-08-03T13:37:08.323Z,31.33
2022-08-03T13:39:57.361Z,31.38
2022-08-03T13:42:22.302Z,31.47
2022-08-03T13:44:48.769Z,31.39
2022-08-03T13:47:15.288Z,31.30
2022-08-03T13:49:42.068Z,31.31
2022-08-03T13:52:21.110Z,31.35
2022-08-03T13:54:47.793Z,31.33
2022-08-03T13:58:04.968Z,31.33
2022-08-03T14:00:02.633Z,31.28
2022-08-03T14:02:29.253Z,31.20
2022-08-03T14:04:55.797Z,31.20
2022-08-03T14:07:22.280Z,31.17
2022-08-03T14:09:48.861Z,31.16
2022-08-03T14:12:15.426Z,31.11
2022-08-03T14:14:41.950Z,31.09
2022-08-03T14:17:08.454Z,31.09
2022-08-03T14:19:52.514Z,31.04
2022-08-03T14:22:20.361Z,31.02
2022-08-03T14:24:46.817Z,30.93
2022-08-03T14:27:13.286Z,30.86
2022-08-03T14:29:39.832Z,30.88
2022-08-03T14:32:11.448Z,30.86
2022-08-03T14:34:39.592Z,30.96
2022-08-03T14:37:06.106Z,30.98
2022-08-03T14:42:20.411Z,30.97
2022-08-03T14:44:47.518Z,30.88
2022-08-03T14:47:14.491Z,30.89
2022-08-03T14:50:38.545Z,30.87
2022-08-03T14:52:27.894Z,30.73
2022-08-03T14:54:54.377Z,30.57
2022-08-03T14:57:21.065Z,30.57
2022-08-03T14:59:55.798Z,30.60
2022-08-03T15:02:24.506Z,30.58
2022-08-03T15:04:51.668Z,30.61
2022-08-03T15:07:18.502Z,30.60
2022-08-03T15:09:45.231Z,30.57
2022-08-03T15:12:11.891Z,30.71
2022-08-03T15:14:38.433Z,30.65
2022-08-03T15:17:05.188Z,30.70
2022-08-03T15:20:03.303Z,30.80
2022-08-03T15:22:20.816Z,30.97
2022-08-03T15:24:52.097Z,30.87
2022-08-03T15:27:19.058Z,30.84
2022-08-03T15:30:05.601Z,30.82
2022-08-03T15:32:33.610Z,30.76
2022-08-03T15:35:00.651Z,30.83
2022-08-03T15:37:27.794Z,30.90
2022-08-03T15:39:59.558Z,31.00
2022-08-03T15:42:28.449Z,30.98
2022-08-03T15:44:55.084Z,30.98
2022-08-03T15:47:21.970Z,30.99
2022-08-03T15:49:48.771Z,30.97
2022-08-03T15:52:15.259Z,30.94
2022-08-03T15:54:41.754Z,31.03
2022-08-03T15:57:08.464Z,30.99
2022-08-03T15:59:35.031Z,31.01
2022-08-03T16:02:01.862Z,30.97
2022-08-03T16:04:28.507Z,30.95
2022-08-03T16:06:54.993Z,30.93
2022-08-03T16:09:24.138Z,30.93
2022-08-03T16:12:15.927Z,30.98
2022-08-03T16:14:53.790Z,31.00
2022-08-03T16:17:21.573Z,31.01
2022-08-03T16:19:48.521Z,31.00
2022-08-03T16:22:17.327Z,30.99
2022-08-03T16:24:46.685Z,30.99
2022-08-03T16:27:36.771Z,31.00
2022-08-03T16:29:59.845Z,30.93
2022-08-03T16:32:26.611Z,30.95
2022-08-03T16:34:53.121Z,30.87
2022-08-03T16:37:38.082Z,30.75
2022-08-03T16:40:09.232Z,30.55
2022-08-03T16:42:45.835Z,30.50
2022-08-03T16:45:12.400Z,30.44
2022-08-03T16:47:38.862Z,30.29
2022-08-03T16:50:15.557Z,30.15
2022-08-03T16:52:47.054Z,30.14
2022-08-03T16:55:15.558Z,30.22
2022-08-03T16:57:58.779Z,30.18
2022-08-03T17:00:33.971Z,30.08
2022-08-03T17:03:04.409Z,30.10
2022-08-03T17:05:47.077Z,30.19
2022-08-03T17:08:14.873Z,30.28
2022-08-03T17:10:45.108Z,30.38
2022-08-03T17:13:21.561Z,30.46
2022-08-03T17:16:01.520Z,30.52
2022-08-03T17:18:34.190Z,30.54
2022-08-03T17:21:06.052Z,30.43
2022-08-03T17:23:54.667Z,30.26
2022-08-03T17:26:23.172Z,30.13
2022-08-03T17:29:12.888Z,30.08
2022-08-03T17:31:48.459Z,30.13
2022-08-03T17:34:16.555Z,30.19
2022-08-03T17:39:56.863Z,30.23
2022-08-03T17:42:31.300Z,30.18
2022-08-03T17:45:07.437Z,30.18
2022-08-03T17:47:42.278Z,30.18
2022-08-03T17:50:28.737Z,30.15
2022-08-03T17:53:15.251Z,30.11
2022-08-03T17:56:40.337Z,30.07
2022-08-03T17:59:15.166Z,30.00
2022-08-03T18:02:23.791Z,29.95
2022-08-03T18:05:16.463Z,29.88
2022-08-03T18:07:50.841Z,29.81
2022-08-03T18:10:33.129Z,29.76
2022-08-03T18:13:13.088Z,29.68
2022-08-03T18:15:46.063Z,29.59
2022-08-03T18:18:15.936Z,29.49
2022-08-03T18:20:45.727Z,29.41
2022-08-03T18:23:24.729Z,29.36
2022-08-03T18:25:57.741Z,29.27
2022-08-03T18:28:26.836Z,29.17
2022-08-03T18:30:55.309Z,29.00
2022-08-03T18:34:32.343Z,28.89
2022-08-03T18:36:21.556Z,28.75
2022-08-03T18:38:51.823Z,28.64
2022-08-03T18:41:32.180Z,28.60
2022-08-03T18:44:08.866Z,28.59
2022-08-03T18:47:16.736Z,28.55
2022-08-03T18:50:13.515Z,28.49
2022-08-03T18:52:53.277Z,28.40
2022-08-03T18:55:39.147Z,28.34
2022-08-03T18:58:29.424Z,28.26
2022-08-03T19:02:00.419Z,28.11
2022-08-03T19:04:31.242Z,27.85
2022-08-03T19:07:03.888Z,27.62
2022-08-03T19:09:34.510Z,27.60
2022-08-03T19:12:14.357Z,27.59
2022-08-03T19:14:56.381Z,27.54
2022-08-03T19:17:29.372Z,27.48
2022-08-03T19:19:58.080Z,27.36
2022-08-03T19:22:27.239Z,27.34
2022-08-03T19:24:55.276Z,27.31
2022-08-03T19:27:26.762Z,27.26
2022-08-03T19:29:58.718Z,27.19
2022-08-03T19:32:31.446Z,27.05
2022-08-03T19:35:00.152Z,27.02
2022-08-03T19:37:38.344Z,26.95
2022-08-03T19:40:12.453Z,26.89
2022-08-03T19:42:44.423Z,26.79
2022-08-03T19:45:14.705Z,26.74
2022-08-03T19:47:48.661Z,26.70
2022-08-03T19:50:16.036Z,26.56
2022-08-03T19:52:46.937Z,26.39
2022-08-03T19:55:16.191Z,26.34
2022-08-03T19:57:47.191Z,26.33
2022-08-03T20:00:19.460Z,26.32
2022-08-03T20:02:46.363Z,26.31
2022-08-03T20:05:15.372Z,26.32
2022-08-03T20:07:47.464Z,26.29
2022-08-03T20:10:15.396Z,26.26
2022-08-03T20:12:44.218Z,26.24
2022-08-03T20:15:11.193Z,26.14
2022-08-03T20:17:56.106Z,26.06
2022-08-03T20:20:31.788Z,25.99
2022-08-03T20:23:00.635Z,25.87
2022-08-03T20:25:37.886Z,25.83
2022-08-03T20:28:30.665Z,25.77
2022-08-03T20:30:58.418Z,25.73
2022-08-03T20:33:27.906Z,25.67
2022-08-03T20:36:12.524Z,25.63
2022-08-03T20:38:46.918Z,25.54
2022-08-03T20:41:14.457Z,25.46
2022-08-03T20:43:41.713Z,25.40
2022-08-03T20:46:29.083Z,25.38
2022-08-03T20:48:57.304Z,25.36
2022-08-03T20:51:50.264Z,25.34
2022-08-03T20:54:29.324Z,25.32
2022-08-03T20:56:59.869Z,25.25
2022-08-03T20:59:46.931Z,25.24
2022-08-03T21:02:19.503Z,25.16
2022-08-03T21:04:55.175Z,25.14
2022-08-03T21:07:23.891Z,25.07
2022-08-03T21:09:57.035Z,24.98
2022-08-03T21:12:33.044Z,24.84
2022-08-03T21:15:03.604Z,24.81
2022-08-03T21:17:40.922Z,24.79
2022-08-03T21:20:10.237Z,24.73
2022-08-03T21:22:45.569Z,24.71
2022-08-03T21:25:15.036Z,24.72
2022-08-03T21:27:42.355Z,24.67
2022-08-03T21:30:11.016Z,24.64
2022-08-03T21:32:40.331Z,24.61
2022-08-03T21:35:10.623Z,24.49
2022-08-03T21:37:39.254Z,24.55
2022-08-03T21:40:07.749Z,24.46
2022-08-03T21:42:34.733Z,24.44
2022-08-03T21:45:05.655Z,24.46
2022-08-03T21:47:36.669Z,24.38
2022-08-03T21:50:09.413Z,24.32
2022-08-03T21:52:43.191Z,24.32
2022-08-03T21:55:18.464Z,24.29
2022-08-03T21:57:52.632Z,24.12
2022-08-03T22:00:21.278Z,24.05
2022-08-03T22:02:54.598Z,24.06
2022-08-03T22:05:29.150Z,24.12
2022-08-03T22:08:09.835Z,24.19
2022-08-03T22:10:36.890Z,24.19
2022-08-03T22:13:03.453Z,24.25
2022-08-03T22:15:30.685Z,24.23
2022-08-03T22:17:58.519Z,24.21
2022-08-03T22:20:25.753Z,24.17
2022-08-03T22:22:56.634Z,24.14
2022-08-03T22:25:29.524Z,24.14
2022-08-03T22:27:58.858Z,24.14
2022-08-03T22:30:25.408Z,24.14
2022-08-03T22:32:54.095Z,24.13
2022-08-03T22:35:22.548Z,24.15
2022-08-03T22:37:51.431Z,24.08
2022-08-03T22:40:19.371Z,24.12
2022-08-03T22:42:49.450Z,24.14
2022-08-03T22:46:07.854Z,24.15
2022-08-03T22:48:07.919Z,24.14
2022-08-03T22:50:34.889Z,24.15
2022-08-03T22:53:01.646Z,24.11
2022-08-03T22:55:28.575Z,24.15
2022-08-03T22:57:56.002Z,24.17
2022-08-03T23:00:23.405Z,24.18
2022-08-03T23:02:51.684Z,24.14
2022-08-03T23:06:02.592Z,24.17
2022-08-03T23:08:14.600Z,24.20
2022-08-03T23:10:46.683Z,24.21
2022-08-03T23:13:16.297Z,24.20
2022-08-03T23:15:47.346Z,24.18
2022-08-03T23:18:13.964Z,24.14
2022-08-03T23:20:40.742Z,24.12
2022-08-03T23:23:11.251Z,24.10
2022-08-03T23:25:41.499Z,24.07
2022-08-03T23:28:09.115Z,24.05
2022-08-03T23:30:37.579Z,24.08
2022-08-03T23:33:04.489Z,24.07
2022-08-03T23:36:28.961Z,24.08
2022-08-03T23:38:37.252Z,24.07
2022-08-03T23:41:05.221Z,24.06
2022-08-03T23:43:51.653Z,24.05
2022-08-03T23:46:21.966Z,24.06
2022-08-03T23:48:48.580Z,24.07
2022-08-03T23:51:25.461Z,24.07
2022-08-03T23:54:02.097Z,24.07
2022-08-03T23:56:37.551Z,24.07
2022-08-03T23:59:18.163Z,24.09
